createdAt,value
2018-09-23T00:02:05.351Z,1.93
2018-09-23T00:04:35.680Z,2.03
2018-09-23T00:07:05.487Z,2.07
2018-09-23T00:09:35.729Z,1.37
2018-09-23T00:12:06.321Z,1.67
2018-09-23T00:14:36.031Z,1.80
2018-09-23T00:17:06.032Z,1.80
2018-09-23T00:19:36.769Z,1.70
2018-09-23T00:22:06.052Z,1.63
2018-09-23T00:24:35.176Z,1.87
2018-09-23T00:27:04.293Z,1.87
2018-09-23T00:29:39.137Z,1.83
2018-09-23T00:32:09.736Z,2.00
2018-09-23T00:34:39.618Z,2.30
2018-09-23T00:37:09.463Z,1.80
2018-09-23T00:39:40.107Z,2.00
2018-09-23T00:42:09.515Z,2.00
2018-09-23T00:44:39.543Z,1.90
2018-09-23T00:47:09.587Z,1.93
2018-09-23T00:49:39.214Z,1.97
2018-09-23T00:52:09.454Z,2.27
2018-09-23T00:54:40.801Z,2.17
2018-09-23T00:57:10.872Z,1.73
2018-09-23T00:59:41.167Z,2.47
2018-09-23T01:02:11.490Z,2.50
2018-09-23T01:04:43.453Z,1.93
2018-09-23T01:07:12.965Z,2.57
2018-09-23T01:09:43.104Z,2.33
2018-09-23T01:12:13.102Z,1.87
2018-09-23T01:14:43.777Z,2.80
2018-09-23T01:17:13.755Z,2.43
2018-09-23T01:19:44.453Z,2.20
2018-09-23T01:22:14.446Z,2.20
2018-09-23T01:24:44.876Z,2.23
2018-09-23T01:27:14.927Z,2.23
2018-09-23T01:29:45.053Z,2.30
2018-09-23T01:32:15.158Z,2.33
2018-09-23T01:34:45.292Z,2.33
2018-09-23T01:37:17.059Z,2.10
2018-09-23T01:39:46.989Z,2.33
2018-09-23T01:42:17.360Z,2.10
2018-09-23T01:44:47.875Z,2.00
2018-09-23T01:47:18.942Z,2.20
2018-09-23T01:49:48.913Z,1.90
2018-09-23T01:52:18.920Z,2.00
2018-09-23T01:54:49.783Z,2.30
2018-09-23T01:57:21.574Z,1.90
2018-09-23T01:59:51.603Z,1.93
2018-09-23T02:02:21.680Z,2.17
2018-09-23T02:04:51.757Z,1.60
2018-09-23T02:07:21.817Z,1.90
2018-09-23T02:09:53.068Z,2.20
2018-09-23T02:12:23.199Z,2.07
2018-09-23T02:14:53.682Z,2.03
2018-09-23T02:17:23.764Z,2.07
2018-09-23T02:19:55.033Z,1.90
2018-09-23T02:22:25.096Z,2.30
2018-09-23T02:24:55.813Z,1.70
2018-09-23T02:27:26.043Z,1.90
2018-09-23T02:29:56.108Z,2.00
2018-09-23T02:32:26.419Z,2.13
2018-09-23T02:34:56.615Z,2.50
2018-09-23T02:37:26.658Z,2.27
2018-09-23T02:39:58.146Z,2.60
2018-09-23T02:42:28.375Z,2.30
2018-09-23T02:44:57.990Z,3.00
2018-09-23T02:47:28.357Z,2.77
2018-09-23T02:49:58.850Z,3.00
2018-09-23T02:52:28.933Z,3.10
2018-09-23T02:54:59.034Z,3.10
2018-09-23T02:57:29.148Z,3.40
2018-09-23T02:59:59.669Z,3.30
2018-09-23T03:02:29.513Z,3.70
2018-09-23T03:04:59.518Z,3.20
2018-09-23T03:07:29.485Z,3.60
2018-09-23T03:10:00.774Z,3.20
2018-09-23T03:12:31.695Z,3.40
2018-09-23T03:15:01.190Z,3.70
2018-09-23T03:17:31.399Z,3.70
2018-09-23T03:20:01.293Z,3.30
2018-09-23T03:22:31.282Z,3.47
2018-09-23T03:25:01.548Z,3.70
2018-09-23T03:27:31.705Z,3.87
2018-09-23T03:30:01.746Z,3.43
2018-09-23T03:32:31.931Z,3.53
2018-09-23T03:35:04.598Z,3.53
2018-09-23T03:37:34.741Z,4.07
2018-09-23T03:40:04.345Z,3.37
2018-09-23T03:42:35.272Z,4.00
2018-09-23T03:45:05.439Z,4.20
2018-09-23T03:47:35.416Z,3.27
2018-09-23T03:50:06.150Z,3.70
2018-09-23T03:52:37.919Z,4.00
2018-09-23T03:55:07.904Z,4.30
2018-09-23T03:57:37.960Z,4.30
2018-09-23T04:00:08.316Z,4.03
2018-09-23T04:02:38.252Z,3.87
2018-09-23T04:05:09.945Z,4.57
2018-09-23T04:07:39.740Z,4.43
2018-09-23T04:10:09.742Z,4.17
2018-09-23T04:12:39.497Z,4.23
2018-09-23T04:15:09.428Z,4.27
2018-09-23T04:17:39.489Z,4.23
2018-09-23T04:20:10.808Z,4.27
2018-09-23T04:22:47.605Z,3.77
2018-09-23T04:25:17.928Z,4.03
2018-09-23T04:27:47.775Z,4.00
2018-09-23T04:30:17.962Z,4.10
2018-09-23T04:32:48.281Z,4.43
2018-09-23T04:35:19.131Z,4.43
2018-09-23T04:37:49.347Z,4.00
2018-09-23T04:40:19.047Z,4.33
2018-09-23T04:42:49.011Z,4.03
2018-09-23T04:45:19.387Z,4.37
2018-09-23T04:47:49.695Z,4.50
2018-09-23T04:50:19.908Z,3.83
2018-09-23T04:52:50.004Z,3.87
2018-09-23T04:55:20.091Z,4.10
2018-09-23T04:57:50.962Z,3.90
2018-09-23T05:00:22.029Z,3.90
2018-09-23T05:02:52.393Z,4.03
2018-09-23T05:05:22.460Z,3.97
2018-09-23T05:07:52.509Z,4.13
2018-09-23T05:10:22.499Z,3.90
2018-09-23T05:12:52.676Z,3.97
2018-09-23T05:15:22.706Z,3.80
2018-09-23T05:17:53.504Z,3.60
2018-09-23T05:20:23.537Z,4.30
2018-09-23T05:22:53.721Z,3.83
2018-09-23T05:25:23.753Z,3.53
2018-09-23T05:27:53.709Z,4.37
2018-09-23T05:30:24.130Z,3.63
2018-09-23T05:32:54.151Z,4.17
2018-09-23T05:35:24.391Z,3.87
2018-09-23T05:37:54.649Z,3.30
2018-09-23T05:40:25.282Z,3.40
2018-09-23T05:42:55.449Z,3.60
2018-09-23T05:45:25.682Z,8.03
2018-09-23T05:47:56.081Z,7.20
2018-09-23T05:50:27.471Z,11.50
2018-09-23T05:52:57.582Z,10.13
2018-09-23T05:55:27.818Z,7.90
2018-09-23T05:57:58.300Z,7.83
2018-09-23T06:00:31.509Z,6.60
2018-09-23T06:03:01.791Z,3.33
2018-09-23T06:05:32.704Z,6.80
2018-09-23T06:08:03.743Z,5.00
2018-09-23T06:10:33.858Z,5.17
2018-09-23T06:13:04.023Z,5.20
2018-09-23T06:15:35.092Z,4.33
2018-09-23T06:18:05.441Z,3.60
2018-09-23T06:20:36.189Z,3.10
2018-09-23T06:23:06.877Z,3.20
2018-09-23T06:25:36.633Z,3.57
2018-09-23T06:28:06.676Z,3.63
2018-09-23T06:30:37.216Z,3.70
2018-09-23T06:33:07.277Z,3.53
2018-09-23T06:35:38.271Z,3.47
2018-09-23T06:38:08.277Z,3.73
2018-09-23T06:40:38.522Z,4.00
2018-09-23T06:43:08.526Z,3.70
2018-09-23T06:45:38.679Z,3.20
2018-09-23T06:48:09.215Z,3.73
2018-09-23T06:50:39.757Z,3.60
2018-09-23T06:53:09.736Z,5.27
2018-09-23T06:55:40.182Z,6.40
2018-09-23T06:58:10.833Z,3.47
2018-09-23T07:00:41.459Z,3.27
2018-09-23T07:03:11.529Z,3.23
2018-09-23T07:05:41.562Z,3.40
2018-09-23T07:08:11.604Z,3.87
2018-09-23T07:10:41.821Z,3.10
2018-09-23T07:13:12.801Z,3.50
2018-09-23T07:15:43.119Z,3.53
2018-09-23T07:18:13.972Z,2.80
2018-09-23T07:20:45.311Z,3.10
2018-09-23T07:23:15.497Z,3.50
2018-09-23T07:25:46.403Z,3.37
2018-09-23T07:28:16.585Z,3.10
2018-09-23T07:30:46.922Z,3.27
2018-09-23T07:33:17.032Z,3.13
2018-09-23T07:35:47.030Z,2.60
2018-09-23T07:38:16.944Z,4.20
2018-09-23T07:40:46.333Z,3.33
2018-09-23T07:43:16.470Z,7.30
2018-09-23T07:45:46.904Z,3.73
2018-09-23T07:48:17.933Z,2.90
2018-09-23T07:50:48.016Z,3.27
2018-09-23T07:53:18.170Z,5.33
2018-09-23T07:55:47.965Z,3.30
2018-09-23T07:58:18.111Z,2.50
2018-09-23T08:00:48.285Z,3.73
2018-09-23T08:03:18.395Z,2.63
2018-09-23T08:05:49.193Z,4.00
2018-09-23T08:08:19.348Z,6.63
2018-09-23T08:10:49.666Z,3.00
2018-09-23T08:13:19.754Z,3.07
2018-09-23T08:15:49.697Z,2.70
2018-09-23T08:18:20.294Z,2.53
2018-09-23T08:20:50.275Z,2.23
2018-09-23T08:23:19.843Z,2.50
2018-09-23T08:25:49.989Z,2.30
2018-09-23T08:28:21.175Z,3.33
2018-09-23T08:30:51.644Z,4.83
2018-09-23T08:33:22.597Z,2.70
2018-09-23T08:35:55.515Z,2.33
2018-09-23T08:38:25.258Z,2.53
2018-09-23T08:40:55.517Z,2.47
2018-09-23T08:43:24.653Z,2.50
2018-09-23T08:45:54.318Z,2.40
2018-09-23T08:48:24.550Z,2.20
2018-09-23T08:50:54.320Z,2.30
2018-09-23T08:53:24.454Z,1.67
2018-09-23T08:55:54.338Z,2.63
2018-09-23T08:58:24.525Z,2.00
2018-09-23T09:00:54.439Z,1.73
2018-09-23T09:03:24.095Z,2.00
2018-09-23T09:05:53.186Z,2.13
2018-09-23T09:08:23.204Z,1.93
2018-09-23T09:10:53.070Z,2.73
2018-09-23T09:13:23.484Z,1.57
2018-09-23T09:15:53.765Z,1.83
2018-09-23T09:18:23.373Z,2.03
2018-09-23T09:20:53.385Z,2.10
2018-09-23T09:23:24.246Z,4.33
2018-09-23T09:25:55.290Z,1.90
2018-09-23T09:28:25.145Z,1.50
2018-09-23T09:30:55.931Z,1.23
2018-09-23T09:33:25.972Z,1.60
2018-09-23T09:35:55.993Z,1.53
2018-09-23T09:38:27.426Z,1.40
2018-09-23T09:40:57.836Z,1.40
2018-09-23T09:43:28.284Z,1.27
2018-09-23T09:45:59.093Z,1.60
2018-09-23T09:48:29.620Z,1.20
2018-09-23T09:50:59.760Z,1.47
2018-09-23T09:53:29.955Z,1.53
2018-09-23T09:56:00.507Z,1.40
2018-09-23T09:58:30.032Z,1.83
2018-09-23T10:01:00.046Z,1.20
2018-09-23T10:03:30.181Z,1.00
2018-09-23T10:06:00.140Z,1.63
2018-09-23T10:08:30.099Z,1.97
2018-09-23T10:11:00.916Z,1.17
2018-09-23T10:13:30.452Z,1.30
2018-09-23T10:16:00.547Z,1.10
2018-09-23T10:18:30.607Z,1.40
2018-09-23T10:20:59.884Z,1.60
2018-09-23T10:23:29.218Z,1.20
2018-09-23T10:25:59.188Z,1.20
2018-09-23T10:28:29.116Z,1.20
2018-09-23T10:30:59.544Z,1.40
2018-09-23T10:33:29.342Z,1.37
2018-09-23T10:35:59.252Z,1.93
2018-09-23T10:38:29.128Z,1.33
2018-09-23T10:40:58.895Z,1.20
2018-09-23T10:43:28.763Z,1.13
2018-09-23T10:45:58.189Z,1.00
2018-09-23T10:48:27.733Z,1.23
2018-09-23T10:50:57.313Z,0.70
2018-09-23T10:53:28.427Z,0.90
2018-09-23T10:55:58.467Z,0.70
2018-09-23T10:58:29.648Z,1.33
2018-09-23T11:00:59.470Z,1.80
2018-09-23T11:03:29.116Z,1.50
2018-09-23T11:05:59.257Z,1.30
2018-09-23T11:08:28.866Z,1.40
2018-09-23T11:10:58.811Z,1.60
2018-09-23T11:13:29.583Z,2.27
2018-09-23T11:15:59.556Z,2.03
2018-09-23T11:18:29.229Z,1.30
2018-09-23T11:20:59.144Z,1.40
2018-09-23T11:23:30.195Z,1.30
2018-09-23T11:26:00.212Z,1.57
2018-09-23T11:28:30.039Z,1.30
2018-09-23T11:30:59.973Z,1.37
2018-09-23T11:33:30.111Z,1.47
2018-09-23T11:36:00.988Z,1.60
2018-09-23T11:38:30.444Z,1.47
2018-09-23T11:41:00.329Z,1.20
2018-09-23T11:43:29.874Z,1.70
2018-09-23T11:45:59.705Z,1.90
2018-09-23T11:48:29.375Z,2.10
2018-09-23T11:50:58.524Z,2.30
2018-09-23T11:53:28.480Z,2.50
2018-09-23T11:55:57.232Z,4.47
2018-09-23T11:58:26.972Z,2.50
2018-09-23T12:00:56.255Z,4.10
2018-09-23T12:03:26.067Z,2.70
2018-09-23T12:05:54.938Z,3.13
2018-09-23T12:08:24.820Z,3.03
2018-09-23T12:10:54.656Z,2.50
2018-09-23T12:13:24.018Z,2.53
2018-09-23T12:15:54.704Z,2.50
2018-09-23T12:18:23.391Z,2.70
2018-09-23T12:20:52.744Z,2.20
2018-09-23T12:23:22.033Z,2.73
2018-09-23T12:25:51.311Z,3.03
2018-09-23T12:28:21.877Z,2.83
2018-09-23T12:30:51.051Z,2.67
2018-09-23T12:33:20.366Z,2.60
2018-09-23T12:35:50.041Z,2.87
2018-09-23T12:38:19.842Z,2.63
2018-09-23T12:40:48.586Z,3.30
2018-09-23T12:43:17.625Z,3.07
2018-09-23T12:47:16.456Z,2.80
2018-09-23T12:49:46.318Z,2.87
2018-09-23T12:52:16.966Z,2.43
2018-09-23T12:54:46.930Z,2.83
2018-09-23T12:57:16.716Z,2.80
2018-09-23T12:59:46.010Z,2.80
2018-09-23T13:02:16.557Z,3.20
2018-09-23T13:04:46.797Z,3.53
2018-09-23T13:07:16.903Z,6.30
2018-09-23T13:09:46.815Z,3.73
2018-09-23T13:12:16.768Z,3.73
2018-09-23T13:14:46.792Z,3.33
2018-09-23T13:17:17.784Z,3.00
2018-09-23T13:19:48.495Z,3.50
2018-09-23T13:22:18.919Z,3.30
2018-09-23T13:24:49.760Z,3.90
2018-09-23T13:27:19.694Z,3.53
2018-09-23T13:29:49.730Z,3.80
2018-09-23T13:32:19.180Z,3.30
2018-09-23T13:34:49.215Z,3.67
2018-09-23T13:37:18.907Z,3.57
2018-09-23T13:39:48.260Z,4.00
2018-09-23T13:42:18.211Z,3.77
2018-09-23T13:44:48.135Z,4.27
2018-09-23T13:47:18.480Z,4.47
2018-09-23T13:49:48.723Z,3.40
2018-09-23T13:52:18.383Z,3.53
2018-09-23T13:54:48.237Z,3.50
2018-09-23T13:57:17.887Z,3.27
2018-09-23T13:59:48.667Z,3.07
2018-09-23T14:02:19.762Z,3.50
2018-09-23T14:04:50.752Z,3.00
2018-09-23T14:07:20.968Z,3.17
2018-09-23T14:09:51.795Z,2.67
2018-09-23T14:12:22.880Z,3.10
2018-09-23T14:14:53.312Z,3.33
2018-09-23T14:17:24.098Z,3.33
2018-09-23T14:19:54.788Z,3.33
2018-09-23T14:22:25.015Z,3.60
2018-09-23T14:24:54.822Z,4.10
2018-09-23T14:27:24.522Z,3.67
2018-09-23T14:29:54.126Z,4.20
2018-09-23T14:32:25.381Z,3.60
2018-09-23T14:34:54.816Z,3.57
2018-09-23T14:37:24.415Z,3.83
2018-09-23T14:39:53.676Z,3.83
2018-09-23T14:42:24.193Z,3.60
2018-09-23T14:44:54.314Z,4.27
2018-09-23T14:47:23.889Z,4.10
2018-09-23T14:49:56.261Z,3.40
2018-09-23T14:52:26.005Z,3.60
2018-09-23T14:54:55.651Z,3.20
2018-09-23T14:57:25.164Z,3.87
2018-09-23T14:59:55.448Z,3.50
2018-09-23T15:02:25.459Z,3.67
2018-09-23T15:04:55.242Z,3.60
2018-09-23T15:07:25.245Z,3.70
2018-09-23T15:09:55.298Z,4.00
2018-09-23T15:12:25.130Z,3.80
2018-09-23T15:14:55.226Z,3.37
2018-09-23T15:17:25.558Z,3.77
2018-09-23T15:19:55.379Z,3.30
2018-09-23T15:22:25.208Z,3.57
2018-09-23T15:24:54.516Z,3.87
2018-09-23T15:27:24.457Z,3.57
2018-09-23T15:29:54.028Z,3.87
2018-09-23T15:32:24.096Z,3.30
2018-09-23T15:34:53.994Z,3.80
2018-09-23T15:37:23.410Z,3.20
2018-09-23T15:39:53.209Z,2.70
2018-09-23T15:42:22.949Z,3.43
2018-09-23T15:44:53.262Z,3.53
2018-09-23T15:47:24.143Z,3.40
2018-09-23T15:49:53.768Z,3.10
2018-09-23T15:52:24.563Z,3.17
2018-09-23T15:54:54.441Z,3.23
2018-09-23T15:57:24.191Z,2.67
2018-09-23T15:59:54.617Z,2.73
2018-09-23T16:02:25.328Z,3.10
2018-09-23T16:04:57.412Z,3.50
2018-09-23T16:07:27.107Z,3.10
2018-09-23T16:09:56.776Z,2.33
2018-09-23T16:12:27.967Z,2.53
2018-09-23T16:14:56.969Z,2.67
2018-09-23T16:17:26.509Z,2.67
2018-09-23T16:19:55.618Z,2.97
2018-09-23T16:22:24.607Z,2.57
2018-09-23T16:24:55.379Z,2.67
2018-09-23T16:27:27.420Z,2.73
2018-09-23T16:29:57.548Z,2.60
2018-09-23T16:32:27.931Z,2.70
2018-09-23T16:34:57.847Z,2.77
2018-09-23T16:37:27.501Z,4.30
2018-09-23T16:39:56.891Z,3.70
2018-09-23T16:42:25.769Z,3.23
2018-09-23T16:44:56.493Z,2.73
2018-09-23T16:47:25.769Z,2.53
2018-09-23T16:49:55.950Z,2.90
2018-09-23T16:52:26.169Z,2.67
2018-09-23T16:54:57.450Z,2.40
2018-09-23T16:57:26.656Z,3.00
2018-09-23T16:59:56.393Z,4.10
2018-09-23T17:02:26.046Z,3.13
2018-09-23T17:04:54.910Z,3.40
2018-09-23T17:07:25.411Z,3.03
2018-09-23T17:09:55.013Z,3.07
2018-09-23T17:12:24.732Z,3.00
2018-09-23T17:14:54.990Z,3.07
2018-09-23T17:17:24.385Z,3.57
2018-09-23T17:19:54.403Z,3.97
2018-09-23T17:22:24.028Z,5.13
2018-09-23T17:24:53.839Z,4.33
2018-09-23T17:27:23.765Z,4.80
2018-09-23T17:29:53.625Z,4.20
2018-09-23T17:32:23.833Z,3.93
2018-09-23T17:34:54.160Z,3.90
2018-09-23T17:37:24.984Z,4.07
2018-09-23T17:39:55.144Z,3.10
2018-09-23T17:42:24.984Z,2.73
2018-09-23T17:44:54.059Z,2.63
2018-09-23T17:47:24.476Z,2.00
2018-09-23T17:49:53.784Z,2.30
2018-09-23T17:52:24.613Z,2.33
2018-09-23T17:54:55.768Z,2.20
2018-09-23T17:57:26.309Z,2.67
2018-09-23T17:59:55.942Z,2.30
2018-09-23T18:02:25.546Z,2.47
2018-09-23T18:04:56.111Z,2.17
2018-09-23T18:07:25.672Z,2.67
2018-09-23T18:09:55.143Z,2.50
2018-09-23T18:12:25.377Z,2.40
2018-09-23T18:14:54.829Z,2.47
2018-09-23T18:17:24.744Z,2.40
2018-09-23T18:19:53.982Z,3.13
2018-09-23T18:22:23.773Z,3.10
2018-09-23T18:24:53.426Z,2.93
2018-09-23T18:27:23.122Z,3.10
2018-09-23T18:29:53.019Z,2.70
2018-09-23T18:32:22.676Z,2.70
2018-09-23T18:34:52.016Z,2.27
2018-09-23T18:37:22.336Z,2.43
2018-09-23T18:39:52.309Z,2.00
2018-09-23T18:42:23.140Z,2.03
2018-09-23T18:44:53.529Z,2.30
2018-09-23T18:47:24.175Z,1.90
2018-09-23T18:49:54.058Z,1.90
2018-09-23T18:52:23.658Z,2.17
2018-09-23T18:54:59.602Z,2.03
2018-09-23T18:57:31.997Z,2.33
2018-09-23T19:00:02.244Z,1.93
2018-09-23T19:02:32.770Z,2.30
2018-09-23T19:05:03.066Z,1.87
2018-09-23T19:07:32.624Z,2.27
2018-09-23T19:10:02.715Z,2.27
2018-09-23T19:12:32.557Z,2.37
2018-09-23T19:15:02.756Z,1.90
2018-09-23T19:17:33.012Z,3.50
2018-09-23T19:20:08.034Z,3.47
2018-09-23T19:22:42.742Z,7.93
2018-09-23T19:25:12.518Z,3.53
2018-09-23T19:27:42.424Z,2.20
2018-09-23T19:30:12.477Z,2.10
2018-09-23T19:32:42.561Z,2.27
2018-09-23T19:35:12.372Z,2.57
2018-09-23T19:37:42.199Z,2.13
2018-09-23T19:40:12.061Z,2.47
2018-09-23T19:42:41.975Z,2.33
2018-09-23T19:45:12.201Z,1.93
2018-09-23T19:47:41.560Z,2.10
2018-09-23T19:50:11.572Z,2.60
2018-09-23T19:52:41.529Z,2.93
2018-09-23T19:55:11.640Z,3.60
2018-09-23T19:57:42.539Z,3.37
2018-09-23T20:00:12.451Z,4.33
2018-09-23T20:02:42.355Z,4.50
2018-09-23T20:05:12.558Z,4.83
2018-09-23T20:07:42.501Z,4.77
2018-09-23T20:10:12.350Z,4.13
2018-09-23T20:12:42.216Z,4.47
2018-09-23T20:15:16.061Z,4.13
2018-09-23T20:17:46.852Z,3.90
2018-09-23T20:20:16.655Z,3.90
2018-09-23T20:22:47.717Z,3.17
2018-09-23T20:25:17.514Z,3.17
2018-09-23T20:27:47.207Z,2.70
2018-09-23T20:30:18.614Z,2.87
2018-09-23T20:32:47.633Z,2.50
2018-09-23T20:35:17.832Z,2.80
2018-09-23T20:37:47.827Z,2.30
2018-09-23T20:40:18.383Z,2.70
2018-09-23T20:42:48.332Z,2.60
2018-09-23T20:45:18.351Z,2.67
2018-09-23T20:47:48.416Z,2.37
2018-09-23T20:50:19.405Z,2.63
2018-09-23T20:52:49.271Z,2.30
2018-09-23T20:55:19.634Z,2.30
2018-09-23T20:57:49.498Z,2.60
2018-09-23T21:00:20.335Z,2.13
2018-09-23T21:02:52.770Z,1.97
2018-09-23T21:05:23.175Z,2.00
2018-09-23T21:07:53.147Z,1.90
2018-09-23T21:10:22.617Z,1.87
2018-09-23T21:12:52.577Z,1.80
2018-09-23T21:15:22.570Z,2.00
2018-09-23T21:17:51.992Z,1.60
2018-09-23T21:20:22.484Z,1.83
2018-09-23T21:22:52.965Z,1.77
2018-09-23T21:25:22.847Z,1.77
2018-09-23T21:27:53.292Z,1.40
2018-09-23T21:30:23.119Z,1.53
2018-09-23T21:32:52.822Z,1.40
2018-09-23T21:35:23.172Z,1.20
2018-09-23T21:37:52.905Z,1.13
2018-09-23T21:40:23.380Z,1.10
2018-09-23T21:42:52.808Z,0.93
2018-09-23T21:45:23.149Z,0.80
2018-09-23T21:47:53.611Z,1.27
2018-09-23T21:50:24.108Z,1.53
2018-09-23T21:52:54.533Z,1.40
2018-09-23T21:55:25.601Z,1.67
2018-09-23T21:57:57.384Z,2.10
2018-09-23T22:00:33.170Z,2.17
2018-09-23T22:03:02.941Z,2.10
2018-09-23T22:05:33.123Z,2.50
2018-09-23T22:08:03.258Z,2.40
2018-09-23T22:10:33.626Z,2.83
2018-09-23T22:13:03.922Z,2.90
2018-09-23T22:15:35.906Z,3.10
2018-09-23T22:18:05.706Z,2.70
2018-09-23T22:20:35.812Z,3.17
2018-09-23T22:23:05.976Z,3.77
2018-09-23T22:25:37.380Z,3.43
2018-09-23T22:28:07.547Z,3.40
2018-09-23T22:30:38.635Z,2.97
2018-09-23T22:33:09.242Z,3.10
2018-09-23T22:35:39.935Z,3.03
2018-09-23T22:38:10.837Z,2.90
2018-09-23T22:40:41.386Z,2.20
2018-09-23T22:43:11.994Z,2.60
2018-09-23T22:45:42.182Z,2.40
2018-09-23T22:48:12.687Z,2.30
2018-09-23T22:50:43.323Z,2.60
2018-09-23T22:53:13.893Z,2.63
2018-09-23T22:55:43.979Z,2.57
2018-09-23T22:58:18.492Z,2.07
2018-09-23T23:00:49.224Z,1.63
2018-09-23T23:03:19.723Z,1.90
2018-09-23T23:05:49.893Z,2.17
2018-09-23T23:08:20.482Z,2.10
2018-09-23T23:10:51.526Z,1.80
2018-09-23T23:13:22.056Z,2.00
2018-09-23T23:15:52.395Z,1.40
2018-09-23T23:18:22.342Z,1.90
2018-09-23T23:20:52.342Z,1.77
2018-09-23T23:23:22.490Z,1.70
2018-09-23T23:25:52.694Z,1.23
2018-09-23T23:28:22.839Z,1.73
2018-09-23T23:30:52.877Z,1.90
2018-09-23T23:33:22.816Z,1.47
2018-09-23T23:35:52.781Z,2.00
2018-09-23T23:38:22.770Z,1.63
2018-09-23T23:40:52.804Z,2.40
2018-09-23T23:43:22.887Z,1.97
2018-09-23T23:45:52.941Z,1.93
2018-09-23T23:48:22.982Z,2.40
2018-09-23T23:50:52.836Z,2.23
2018-09-23T23:53:23.333Z,1.90
2018-09-23T23:55:54.309Z,2.20
2018-09-23T23:58:24.488Z,2.27
